sensor_id;sensor_type;location;lat;lon;timestamp;temperature;humidity
678;DHT22;321;48.814;9.132;2023-04-06T00:01:37;3.10;98.10
678;DHT22;321;48.814;9.132;2023-04-06T00:04:03;3.10;98.20
678;DHT22;321;48.814;9.132;2023-04-06T00:06:29;3.20;97.80
678;DHT22;321;48.814;9.132;2023-04-06T00:08:56;3.20;97.70
678;DHT22;321;48.814;9.132;2023-04-06T00:11:21;3.20;97.70
678;DHT22;321;48.814;9.132;2023-04-06T00:13:47;3.20;97.70
678;DHT22;321;48.814;9.132;2023-04-06T00:16:13;3.20;98.00
678;DHT22;321;48.814;9.132;2023-04-06T00:18:38;3.20;98.10
678;DHT22;321;48.814;9.132;2023-04-06T00:21:04;3.20;98.20
678;DHT22;321;48.814;9.132;2023-04-06T00:23:30;3.20;98.10
678;DHT22;321;48.814;9.132;2023-04-06T00:25:56;3.10;98.50
678;DHT22;321;48.814;9.132;2023-04-06T00:28:21;3.10;98.50
678;DHT22;321;48.814;9.132;2023-04-06T00:30:51;3.00;98.40
678;DHT22;321;48.814;9.132;2023-04-06T00:33:18;3.10;98.40
678;DHT22;321;48.814;9.132;2023-04-06T00:35:44;3.10;98.40
678;DHT22;321;48.814;9.132;2023-04-06T00:38:10;3.10;98.40
678;DHT22;321;48.814;9.132;2023-04-06T00:40:35;3.10;98.80
678;DHT22;321;48.814;9.132;2023-04-06T00:43:04;3.10;98.60
678;DHT22;321;48.814;9.132;2023-04-06T00:45:30;3.10;98.50
678;DHT22;321;48.814;9.132;2023-04-06T00:47:56;3.20;99.10
678;DHT22;321;48.814;9.132;2023-04-06T00:50:21;3.20;99.20
678;DHT22;321;48.814;9.132;2023-04-06T00:52:47;3.10;98.50
678;DHT22;321;48.814;9.132;2023-04-06T00:55:13;3.10;98.30
678;DHT22;321;48.814;9.132;2023-04-06T00:57:38;3.10;97.90
678;DHT22;321;48.814;9.132;2023-04-06T01:00:04;3.20;98.80
678;DHT22;321;48.814;9.132;2023-04-06T01:02:30;3.10;98.60
678;DHT22;321;48.814;9.132;2023-04-06T01:04:56;3.10;98.60
678;DHT22;321;48.814;9.132;2023-04-06T01:07:22;3.10;98.60
678;DHT22;321;48.814;9.132;2023-04-06T01:09:47;3.10;98.20
678;DHT22;321;48.814;9.132;2023-04-06T01:12:13;3.10;98.00
678;DHT22;321;48.814;9.132;2023-04-06T01:14:38;3.10;98.00
678;DHT22;321;48.814;9.132;2023-04-06T01:17:04;3.10;98.40
678;DHT22;321;48.814;9.132;2023-04-06T01:19:30;3.10;98.60
678;DHT22;321;48.814;9.132;2023-04-06T01:21:55;3.10;99.30
678;DHT22;321;48.814;9.132;2023-04-06T01:24:21;3.00;99.80
678;DHT22;321;48.814;9.132;2023-04-06T01:26:47;3.00;99.80
678;DHT22;321;48.814;9.132;2023-04-06T01:29:13;2.90;99.30
678;DHT22;321;48.814;9.132;2023-04-06T01:31:39;2.90;99.00
678;DHT22;321;48.814;9.132;2023-04-06T01:34:05;2.90;99.10
678;DHT22;321;48.814;9.132;2023-04-06T01:36:31;2.90;99.00
678;DHT22;321;48.814;9.132;2023-04-06T01:38:57;2.90;99.10
678;DHT22;321;48.814;9.132;2023-04-06T01:41:22;2.90;99.40
678;DHT22;321;48.814;9.132;2023-04-06T01:43:48;2.80;99.10
678;DHT22;321;48.814;9.132;2023-04-06T01:46:15;2.80;99.50
678;DHT22;321;48.814;9.132;2023-04-06T01:48:41;2.80;99.50
678;DHT22;321;48.814;9.132;2023-04-06T01:51:07;2.90;99.40
678;DHT22;321;48.814;9.132;2023-04-06T01:53:32;2.80;99.70
678;DHT22;321;48.814;9.132;2023-04-06T01:55:58;2.70;99.60
678;DHT22;321;48.814;9.132;2023-04-06T01:58:24;2.70;99.90
678;DHT22;321;48.814;9.132;2023-04-06T02:00:49;2.70;99.70
678;DHT22;321;48.814;9.132;2023-04-06T02:03:15;2.70;99.80
678;DHT22;321;48.814;9.132;2023-04-06T02:05:40;2.70;99.90
678;DHT22;321;48.814;9.132;2023-04-06T02:08:07;2.60;99.90
678;DHT22;321;48.814;9.132;2023-04-06T02:10:33;2.60;99.90
678;DHT22;321;48.814;9.132;2023-04-06T02:12:59;2.60;99.90
678;DHT22;321;48.814;9.132;2023-04-06T02:15:26;2.50;99.90
678;DHT22;321;48.814;9.132;2023-04-06T02:17:52;2.50;99.90
678;DHT22;321;48.814;9.132;2023-04-06T02:20:18;2.50;99.90
678;DHT22;321;48.814;9.132;2023-04-06T02:22:43;2.50;99.90
678;DHT22;321;48.814;9.132;2023-04-06T02:25:09;2.50;99.90
678;DHT22;321;48.814;9.132;2023-04-06T02:27:35;2.30;99.90
678;DHT22;321;48.814;9.132;2023-04-06T02:30:05;2.20;99.90
678;DHT22;321;48.814;9.132;2023-04-06T02:32:33;2.30;99.90
678;DHT22;321;48.814;9.132;2023-04-06T02:34:59;2.30;99.90
678;DHT22;321;48.814;9.132;2023-04-06T02:37:25;2.40;99.90
678;DHT22;321;48.814;9.132;2023-04-06T02:39:51;2.30;99.90
678;DHT22;321;48.814;9.132;2023-04-06T02:42:16;2.30;99.90
678;DHT22;321;48.814;9.132;2023-04-06T02:44:43;2.30;99.90
678;DHT22;321;48.814;9.132;2023-04-06T02:47:09;2.20;99.90
678;DHT22;321;48.814;9.132;2023-04-06T02:49:35;2.30;99.90
678;DHT22;321;48.814;9.132;2023-04-06T02:52:01;2.30;99.90
678;DHT22;321;48.814;9.132;2023-04-06T02:54:27;2.40;99.90
678;DHT22;321;48.814;9.132;2023-04-06T02:56:52;2.30;99.90
678;DHT22;321;48.814;9.132;2023-04-06T02:59:18;2.30;99.90
678;DHT22;321;48.814;9.132;2023-04-06T03:01:43;2.30;99.90
678;DHT22;321;48.814;9.132;2023-04-06T03:04:09;2.30;99.90
678;DHT22;321;48.814;9.132;2023-04-06T03:06:35;2.10;99.90
678;DHT22;321;48.814;9.132;2023-04-06T03:09:00;2.10;99.90
678;DHT22;321;48.814;9.132;2023-04-06T03:11:26;2.10;99.90
678;DHT22;321;48.814;9.132;2023-04-06T03:13:52;2.00;99.90
678;DHT22;321;48.814;9.132;2023-04-06T03:16:17;2.10;99.90
678;DHT22;321;48.814;9.132;2023-04-06T03:18:43;2.10;99.90
678;DHT22;321;48.814;9.132;2023-04-06T03:21:10;2.00;99.90
678;DHT22;321;48.814;9.132;2023-04-06T03:23:36;2.00;99.90
678;DHT22;321;48.814;9.132;2023-04-06T03:26:02;2.00;99.90
678;DHT22;321;48.814;9.132;2023-04-06T03:28:28;2.00;99.90
678;DHT22;321;48.814;9.132;2023-04-06T03:30:53;2.10;99.90
678;DHT22;321;48.814;9.132;2023-04-06T03:33:19;2.00;99.90
678;DHT22;321;48.814;9.132;2023-04-06T03:35:45;2.00;99.90
678;DHT22;321;48.814;9.132;2023-04-06T03:38:10;2.00;99.90
678;DHT22;321;48.814;9.132;2023-04-06T03:40:36;2.00;99.90
678;DHT22;321;48.814;9.132;2023-04-06T03:43:01;1.90;99.90
678;DHT22;321;48.814;9.132;2023-04-06T03:45:27;2.10;99.90
678;DHT22;321;48.814;9.132;2023-04-06T03:47:53;2.00;99.90
678;DHT22;321;48.814;9.132;2023-04-06T03:50:18;2.00;99.90
678;DHT22;321;48.814;9.132;2023-04-06T03:52:44;2.00;99.90
678;DHT22;321;48.814;9.132;2023-04-06T03:55:10;2.00;99.90
678;DHT22;321;48.814;9.132;2023-04-06T03:57:36;2.00;99.90
678;DHT22;321;48.814;9.132;2023-04-06T04:00:03;1.90;99.90
678;DHT22;321;48.814;9.132;2023-04-06T04:02:29;1.90;99.90
678;DHT22;321;48.814;9.132;2023-04-06T04:04:54;1.90;99.90
678;DHT22;321;48.814;9.132;2023-04-06T04:07:20;1.90;99.90
678;DHT22;321;48.814;9.132;2023-04-06T04:09:46;1.80;99.90
678;DHT22;321;48.814;9.132;2023-04-06T04:12:11;1.90;99.90
678;DHT22;321;48.814;9.132;2023-04-06T04:14:37;1.90;99.90
678;DHT22;321;48.814;9.132;2023-04-06T04:17:02;1.90;99.90
678;DHT22;321;48.814;9.132;2023-04-06T04:19:28;1.80;99.90
678;DHT22;321;48.814;9.132;2023-04-06T04:21:53;1.80;99.90
678;DHT22;321;48.814;9.132;2023-04-06T04:24:19;1.90;99.90
678;DHT22;321;48.814;9.132;2023-04-06T04:26:45;1.80;99.90
678;DHT22;321;48.814;9.132;2023-04-06T04:29:10;1.80;99.90
678;DHT22;321;48.814;9.132;2023-04-06T04:31:36;1.80;99.90
678;DHT22;321;48.814;9.132;2023-04-06T04:34:02;1.80;99.90
678;DHT22;321;48.814;9.132;2023-04-06T04:36:27;1.70;99.90
678;DHT22;321;48.814;9.132;2023-04-06T04:38:53;1.80;99.90
678;DHT22;321;48.814;9.132;2023-04-06T04:41:18;1.70;99.90
678;DHT22;321;48.814;9.132;2023-04-06T04:43:44;1.70;99.90
678;DHT22;321;48.814;9.132;2023-04-06T04:46:10;1.80;99.90
678;DHT22;321;48.814;9.132;2023-04-06T04:48:36;1.80;99.90
678;DHT22;321;48.814;9.132;2023-04-06T04:51:01;1.80;99.90
678;DHT22;321;48.814;9.132;2023-04-06T04:53:27;1.70;99.90
678;DHT22;321;48.814;9.132;2023-04-06T04:55:53;1.80;99.90
678;DHT22;321;48.814;9.132;2023-04-06T04:58:18;1.80;99.90
678;DHT22;321;48.814;9.132;2023-04-06T05:00:45;1.80;99.90
678;DHT22;321;48.814;9.132;2023-04-06T05:03:17;1.80;99.90
678;DHT22;321;48.814;9.132;2023-04-06T05:05:43;1.80;99.90
678;DHT22;321;48.814;9.132;2023-04-06T05:08:09;1.80;99.90
678;DHT22;321;48.814;9.132;2023-04-06T05:10:35;1.80;99.90
678;DHT22;321;48.814;9.132;2023-04-06T05:13:00;1.90;99.90
678;DHT22;321;48.814;9.132;2023-04-06T05:15:26;1.90;99.90
678;DHT22;321;48.814;9.132;2023-04-06T05:17:52;2.00;99.90
678;DHT22;321;48.814;9.132;2023-04-06T05:20:17;2.00;99.90
678;DHT22;321;48.814;9.132;2023-04-06T05:22:43;2.10;99.90
678;DHT22;321;48.814;9.132;2023-04-06T05:25:08;2.10;99.90
678;DHT22;321;48.814;9.132;2023-04-06T05:27:34;2.10;99.90
678;DHT22;321;48.814;9.132;2023-04-06T05:30:00;2.10;99.90
678;DHT22;321;48.814;9.132;2023-04-06T05:32:26;2.20;99.90
678;DHT22;321;48.814;9.132;2023-04-06T05:34:52;2.20;99.90
678;DHT22;321;48.814;9.132;2023-04-06T05:37:17;2.30;99.90
678;DHT22;321;48.814;9.132;2023-04-06T05:39:43;2.40;99.90
678;DHT22;321;48.814;9.132;2023-04-06T05:42:09;2.50;99.90
678;DHT22;321;48.814;9.132;2023-04-06T05:44:37;2.50;99.90
678;DHT22;321;48.814;9.132;2023-04-06T05:47:02;2.60;99.90
678;DHT22;321;48.814;9.132;2023-04-06T05:49:28;2.60;99.90
678;DHT22;321;48.814;9.132;2023-04-06T05:51:55;2.60;99.90
678;DHT22;321;48.814;9.132;2023-04-06T05:54:20;2.70;99.90
678;DHT22;321;48.814;9.132;2023-04-06T05:56:46;2.70;99.90
678;DHT22;321;48.814;9.132;2023-04-06T05:59:12;2.80;99.90
678;DHT22;321;48.814;9.132;2023-04-06T06:01:37;2.80;99.90
678;DHT22;321;48.814;9.132;2023-04-06T06:04:03;2.90;99.90
678;DHT22;321;48.814;9.132;2023-04-06T06:06:29;2.90;99.90
678;DHT22;321;48.814;9.132;2023-04-06T06:08:57;3.10;99.90
678;DHT22;321;48.814;9.132;2023-04-06T06:11:27;3.20;99.90
678;DHT22;321;48.814;9.132;2023-04-06T06:13:53;3.30;99.90
678;DHT22;321;48.814;9.132;2023-04-06T06:16:19;3.50;99.90
678;DHT22;321;48.814;9.132;2023-04-06T06:18:45;3.50;99.90
678;DHT22;321;48.814;9.132;2023-04-06T06:21:11;3.70;99.90
678;DHT22;321;48.814;9.132;2023-04-06T06:23:43;3.80;99.90
678;DHT22;321;48.814;9.132;2023-04-06T06:26:08;3.80;99.90
678;DHT22;321;48.814;9.132;2023-04-06T06:28:34;3.90;99.90
678;DHT22;321;48.814;9.132;2023-04-06T06:30:59;4.00;99.90
678;DHT22;321;48.814;9.132;2023-04-06T06:33:26;4.20;99.90
678;DHT22;321;48.814;9.132;2023-04-06T06:35:52;4.40;99.90
678;DHT22;321;48.814;9.132;2023-04-06T06:38:17;4.60;99.90
678;DHT22;321;48.814;9.132;2023-04-06T06:40:44;4.60;99.90
678;DHT22;321;48.814;9.132;2023-04-06T06:43:10;4.70;99.90
678;DHT22;321;48.814;9.132;2023-04-06T06:45:35;4.90;99.90
678;DHT22;321;48.814;9.132;2023-04-06T06:48:01;4.90;99.90
678;DHT22;321;48.814;9.132;2023-04-06T06:50:27;5.00;99.90
678;DHT22;321;48.814;9.132;2023-04-06T06:52:53;5.00;99.80
678;DHT22;321;48.814;9.132;2023-04-06T06:55:18;5.20;99.60
678;DHT22;321;48.814;9.132;2023-04-06T06:57:47;5.50;98.90
678;DHT22;321;48.814;9.132;2023-04-06T07:00:13;5.80;98.20
678;DHT22;321;48.814;9.132;2023-04-06T07:02:40;6.00;97.20
678;DHT22;321;48.814;9.132;2023-04-06T07:05:05;6.10;97.00
678;DHT22;321;48.814;9.132;2023-04-06T07:07:34;6.00;96.60
678;DHT22;321;48.814;9.132;2023-04-06T07:10:00;6.30;96.20
678;DHT22;321;48.814;9.132;2023-04-06T07:15:37;6.50;95.00
678;DHT22;321;48.814;9.132;2023-04-06T07:18:03;6.80;94.90
678;DHT22;321;48.814;9.132;2023-04-06T07:20:28;7.20;95.20
678;DHT22;321;48.814;9.132;2023-04-06T07:22:54;7.40;93.60
678;DHT22;321;48.814;9.132;2023-04-06T07:25:20;7.60;93.40
678;DHT22;321;48.814;9.132;2023-04-06T07:27:45;7.90;92.80
678;DHT22;321;48.814;9.132;2023-04-06T07:30:11;8.20;92.60
678;DHT22;321;48.814;9.132;2023-04-06T07:32:37;8.60;91.60
678;DHT22;321;48.814;9.132;2023-04-06T07:35:03;9.40;91.60
678;DHT22;321;48.814;9.132;2023-04-06T07:37:29;10.70;88.80
678;DHT22;321;48.814;9.132;2023-04-06T07:39:54;12.20;82.90
678;DHT22;321;48.814;9.132;2023-04-06T07:42:20;13.90;77.20
678;DHT22;321;48.814;9.132;2023-04-06T07:44:45;15.10;68.50
678;DHT22;321;48.814;9.132;2023-04-06T07:47:11;16.50;64.40
678;DHT22;321;48.814;9.132;2023-04-06T07:49:37;17.50;59.90
678;DHT22;321;48.814;9.132;2023-04-06T07:52:03;18.60;56.90
678;DHT22;321;48.814;9.132;2023-04-06T07:54:28;19.60;54.10
678;DHT22;321;48.814;9.132;2023-04-06T07:56:54;20.60;51.20
678;DHT22;321;48.814;9.132;2023-04-06T07:59:20;20.80;51.40
678;DHT22;321;48.814;9.132;2023-04-06T08:01:45;21.40;48.10
678;DHT22;321;48.814;9.132;2023-04-06T08:04:11;22.10;46.90
678;DHT22;321;48.814;9.132;2023-04-06T08:06:37;22.90;45.20
678;DHT22;321;48.814;9.132;2023-04-06T08:09:02;22.40;44.90
678;DHT22;321;48.814;9.132;2023-04-06T08:11:28;22.70;45.60
678;DHT22;321;48.814;9.132;2023-04-06T08:13:54;22.80;43.40
678;DHT22;321;48.814;9.132;2023-04-06T08:16:23;23.40;43.10
678;DHT22;321;48.814;9.132;2023-04-06T08:18:49;23.40;42.10
678;DHT22;321;48.814;9.132;2023-04-06T08:21:14;23.70;43.60
678;DHT22;321;48.814;9.132;2023-04-06T08:23:40;23.40;42.40
678;DHT22;321;48.814;9.132;2023-04-06T08:26:06;22.70;41.00
678;DHT22;321;48.814;9.132;2023-04-06T08:28:31;23.30;42.10
678;DHT22;321;48.814;9.132;2023-04-06T08:30:57;23.20;41.40
678;DHT22;321;48.814;9.132;2023-04-06T08:33:23;23.00;41.20
678;DHT22;321;48.814;9.132;2023-04-06T08:35:48;23.20;41.70
678;DHT22;321;48.814;9.132;2023-04-06T08:38:14;23.00;42.00
678;DHT22;321;48.814;9.132;2023-04-06T08:40:40;23.00;40.90
678;DHT22;321;48.814;9.132;2023-04-06T08:43:09;23.20;40.90
678;DHT22;321;48.814;9.132;2023-04-06T08:45:36;23.50;40.60
678;DHT22;321;48.814;9.132;2023-04-06T08:48:02;23.80;40.70
678;DHT22;321;48.814;9.132;2023-04-06T08:50:30;24.50;39.20
678;DHT22;321;48.814;9.132;2023-04-06T08:52:56;25.10;37.60
678;DHT22;321;48.814;9.132;2023-04-06T08:55:22;25.20;38.60
678;DHT22;321;48.814;9.132;2023-04-06T08:57:48;24.90;38.00
678;DHT22;321;48.814;9.132;2023-04-06T09:00:14;25.40;37.40
678;DHT22;321;48.814;9.132;2023-04-06T09:02:45;24.60;36.70
678;DHT22;321;48.814;9.132;2023-04-06T09:05:11;23.90;36.10
678;DHT22;321;48.814;9.132;2023-04-06T09:07:37;23.70;35.60
678;DHT22;321;48.814;9.132;2023-04-06T09:10:07;23.60;34.90
678;DHT22;321;48.814;9.132;2023-04-06T09:12:33;24.00;35.30
678;DHT22;321;48.814;9.132;2023-04-06T09:15:01;24.20;34.90
678;DHT22;321;48.814;9.132;2023-04-06T09:17:31;25.00;35.20
678;DHT22;321;48.814;9.132;2023-04-06T09:19:59;25.50;33.50
678;DHT22;321;48.814;9.132;2023-04-06T09:22:34;26.10;33.80
678;DHT22;321;48.814;9.132;2023-04-06T09:25:00;26.60;30.90
678;DHT22;321;48.814;9.132;2023-04-06T09:27:33;25.30;30.50
678;DHT22;321;48.814;9.132;2023-04-06T09:32:32;25.70;33.30
678;DHT22;321;48.814;9.132;2023-04-06T09:35:08;24.50;32.10
678;DHT22;321;48.814;9.132;2023-04-06T09:37:34;22.50;32.00
678;DHT22;321;48.814;9.132;2023-04-06T09:40:07;22.70;34.30
678;DHT22;321;48.814;9.132;2023-04-06T09:42:34;22.60;34.30
678;DHT22;321;48.814;9.132;2023-04-06T09:45:03;23.00;33.70
678;DHT22;321;48.814;9.132;2023-04-06T09:47:30;23.60;33.90
678;DHT22;321;48.814;9.132;2023-04-06T09:49:57;24.40;33.80
678;DHT22;321;48.814;9.132;2023-04-06T09:52:31;24.30;32.70
678;DHT22;321;48.814;9.132;2023-04-06T09:55:02;24.70;33.60
678;DHT22;321;48.814;9.132;2023-04-06T09:57:35;25.40;34.00
678;DHT22;321;48.814;9.132;2023-04-06T10:00:09;24.50;33.40
678;DHT22;321;48.814;9.132;2023-04-06T10:05:57;25.20;32.50
678;DHT22;321;48.814;9.132;2023-04-06T10:08:27;26.10;30.70
678;DHT22;321;48.814;9.132;2023-04-06T10:10:54;26.60;30.50
678;DHT22;321;48.814;9.132;2023-04-06T10:13:20;26.10;30.50
678;DHT22;321;48.814;9.132;2023-04-06T10:15:47;25.80;30.90
678;DHT22;321;48.814;9.132;2023-04-06T10:18:14;26.00;31.20
678;DHT22;321;48.814;9.132;2023-04-06T10:20:52;24.50;31.50
678;DHT22;321;48.814;9.132;2023-04-06T10:23:24;24.40;32.10
678;DHT22;321;48.814;9.132;2023-04-06T10:25:53;24.70;32.90
678;DHT22;321;48.814;9.132;2023-04-06T10:28:19;24.60;33.10
678;DHT22;321;48.814;9.132;2023-04-06T10:30:45;22.10;32.30
678;DHT22;321;48.814;9.132;2023-04-06T10:33:17;22.00;34.00
678;DHT22;321;48.814;9.132;2023-04-06T10:35:43;22.50;36.60
678;DHT22;321;48.814;9.132;2023-04-06T10:38:09;22.50;34.80
678;DHT22;321;48.814;9.132;2023-04-06T10:40:38;21.50;33.90
678;DHT22;321;48.814;9.132;2023-04-06T10:43:18;21.70;34.50
678;DHT22;321;48.814;9.132;2023-04-06T10:45:44;21.90;33.60
678;DHT22;321;48.814;9.132;2023-04-06T10:48:17;19.10;32.80
678;DHT22;321;48.814;9.132;2023-04-06T10:50:46;19.30;36.10
678;DHT22;321;48.814;9.132;2023-04-06T10:53:19;19.50;37.00
678;DHT22;321;48.814;9.132;2023-04-06T10:55:45;19.60;37.20
678;DHT22;321;48.814;9.132;2023-04-06T10:58:13;19.20;36.10
678;DHT22;321;48.814;9.132;2023-04-06T11:00:45;19.50;36.20
678;DHT22;321;48.814;9.132;2023-04-06T11:03:10;18.80;36.60
678;DHT22;321;48.814;9.132;2023-04-06T11:05:36;19.30;37.40
678;DHT22;321;48.814;9.132;2023-04-06T11:08:02;19.30;40.20
678;DHT22;321;48.814;9.132;2023-04-06T11:10:27;19.30;37.30
678;DHT22;321;48.814;9.132;2023-04-06T11:12:56;19.00;35.60
678;DHT22;321;48.814;9.132;2023-04-06T11:15:22;18.90;35.30
678;DHT22;321;48.814;9.132;2023-04-06T11:17:48;18.40;36.60
678;DHT22;321;48.814;9.132;2023-04-06T11:20:15;18.70;39.40
678;DHT22;321;48.814;9.132;2023-04-06T11:22:50;18.90;38.30
678;DHT22;321;48.814;9.132;2023-04-06T11:25:17;19.60;39.40
678;DHT22;321;48.814;9.132;2023-04-06T11:27:43;20.10;35.80
678;DHT22;321;48.814;9.132;2023-04-06T11:30:09;20.40;35.20
678;DHT22;321;48.814;9.132;2023-04-06T11:32:42;19.70;35.10
678;DHT22;321;48.814;9.132;2023-04-06T11:35:20;18.70;35.20
678;DHT22;321;48.814;9.132;2023-04-06T11:37:46;18.80;37.10
678;DHT22;321;48.814;9.132;2023-04-06T11:40:12;19.00;37.80
678;DHT22;321;48.814;9.132;2023-04-06T11:42:37;19.70;37.40
678;DHT22;321;48.814;9.132;2023-04-06T11:45:03;20.30;35.30
678;DHT22;321;48.814;9.132;2023-04-06T11:47:33;19.10;34.60
678;DHT22;321;48.814;9.132;2023-04-06T11:50:10;19.10;35.60
678;DHT22;321;48.814;9.132;2023-04-06T11:52:36;19.60;36.00
678;DHT22;321;48.814;9.132;2023-04-06T11:55:11;19.20;36.10
678;DHT22;321;48.814;9.132;2023-04-06T11:57:38;19.30;36.60
678;DHT22;321;48.814;9.132;2023-04-06T12:00:04;19.90;34.70
678;DHT22;321;48.814;9.132;2023-04-06T12:02:30;20.30;35.00
678;DHT22;321;48.814;9.132;2023-04-06T12:04:57;20.70;35.00
678;DHT22;321;48.814;9.132;2023-04-06T12:07:23;20.80;36.50
678;DHT22;321;48.814;9.132;2023-04-06T12:09:48;20.20;32.90
678;DHT22;321;48.814;9.132;2023-04-06T12:12:14;20.00;34.90
678;DHT22;321;48.814;9.132;2023-04-06T12:14:39;19.30;34.70
678;DHT22;321;48.814;9.132;2023-04-06T12:17:05;17.80;33.80
678;DHT22;321;48.814;9.132;2023-04-06T12:19:31;16.90;35.50
678;DHT22;321;48.814;9.132;2023-04-06T12:21:57;16.60;38.70
678;DHT22;321;48.814;9.132;2023-04-06T12:24:23;16.40;42.70
678;DHT22;321;48.814;9.132;2023-04-06T12:26:48;16.40;39.90
678;DHT22;321;48.814;9.132;2023-04-06T12:29:14;16.50;40.20
678;DHT22;321;48.814;9.132;2023-04-06T12:31:40;16.50;40.60
678;DHT22;321;48.814;9.132;2023-04-06T12:34:08;16.20;39.30
678;DHT22;321;48.814;9.132;2023-04-06T12:36:33;16.00;39.70
678;DHT22;321;48.814;9.132;2023-04-06T12:38:59;15.90;39.80
678;DHT22;321;48.814;9.132;2023-04-06T12:41:28;15.60;39.00
678;DHT22;321;48.814;9.132;2023-04-06T12:43:55;15.50;40.20
678;DHT22;321;48.814;9.132;2023-04-06T12:46:21;15.40;39.60
678;DHT22;321;48.814;9.132;2023-04-06T12:48:47;15.20;40.50
678;DHT22;321;48.814;9.132;2023-04-06T12:51:13;15.10;40.10
678;DHT22;321;48.814;9.132;2023-04-06T12:53:39;15.20;41.40
678;DHT22;321;48.814;9.132;2023-04-06T12:56:15;15.20;41.40
678;DHT22;321;48.814;9.132;2023-04-06T12:58:42;15.20;40.70
678;DHT22;321;48.814;9.132;2023-04-06T13:01:08;15.10;40.00
678;DHT22;321;48.814;9.132;2023-04-06T13:03:34;14.70;40.20
678;DHT22;321;48.814;9.132;2023-04-06T13:06:00;14.50;40.80
678;DHT22;321;48.814;9.132;2023-04-06T13:08:26;14.60;40.10
678;DHT22;321;48.814;9.132;2023-04-06T13:10:53;14.60;40.50
678;DHT22;321;48.814;9.132;2023-04-06T13:13:29;14.20;41.10
678;DHT22;321;48.814;9.132;2023-04-06T13:15:59;14.30;42.40
678;DHT22;321;48.814;9.132;2023-04-06T13:18:26;14.50;42.00
678;DHT22;321;48.814;9.132;2023-04-06T13:20:52;14.70;43.10
678;DHT22;321;48.814;9.132;2023-04-06T13:23:17;14.90;42.90
678;DHT22;321;48.814;9.132;2023-04-06T13:25:43;14.90;41.30
678;DHT22;321;48.814;9.132;2023-04-06T13:28:10;15.10;42.10
678;DHT22;321;48.814;9.132;2023-04-06T13:30:36;15.30;42.00
678;DHT22;321;48.814;9.132;2023-04-06T13:33:02;15.40;41.60
678;DHT22;321;48.814;9.132;2023-04-06T13:35:28;15.30;40.30
678;DHT22;321;48.814;9.132;2023-04-06T13:37:54;15.20;40.70
678;DHT22;321;48.814;9.132;2023-04-06T13:40:19;15.50;44.10
678;DHT22;321;48.814;9.132;2023-04-06T13:42:46;15.80;44.60
678;DHT22;321;48.814;9.132;2023-04-06T13:45:12;15.90;40.70
678;DHT22;321;48.814;9.132;2023-04-06T13:47:38;15.70;40.30
678;DHT22;321;48.814;9.132;2023-04-06T13:50:04;15.40;39.60
678;DHT22;321;48.814;9.132;2023-04-06T13:52:30;15.50;41.10
678;DHT22;321;48.814;9.132;2023-04-06T13:54:56;15.80;41.80
678;DHT22;321;48.814;9.132;2023-04-06T13:57:21;15.70;40.40
678;DHT22;321;48.814;9.132;2023-04-06T13:59:47;15.80;42.20
678;DHT22;321;48.814;9.132;2023-04-06T14:02:14;16.10;40.70
678;DHT22;321;48.814;9.132;2023-04-06T14:04:40;16.20;39.60
678;DHT22;321;48.814;9.132;2023-04-06T14:07:06;16.40;41.40
678;DHT22;321;48.814;9.132;2023-04-06T14:09:34;16.60;40.30
678;DHT22;321;48.814;9.132;2023-04-06T14:12:00;16.80;40.10
678;DHT22;321;48.814;9.132;2023-04-06T14:14:26;17.10;40.00
678;DHT22;321;48.814;9.132;2023-04-06T14:16:52;17.10;39.50
678;DHT22;321;48.814;9.132;2023-04-06T14:19:18;16.80;38.90
678;DHT22;321;48.814;9.132;2023-04-06T14:21:45;16.90;42.20
678;DHT22;321;48.814;9.132;2023-04-06T14:24:10;17.00;42.30
678;DHT22;321;48.814;9.132;2023-04-06T14:26:37;17.00;43.80
678;DHT22;321;48.814;9.132;2023-04-06T14:29:05;17.00;43.60
678;DHT22;321;48.814;9.132;2023-04-06T14:31:32;16.80;41.10
678;DHT22;321;48.814;9.132;2023-04-06T14:33:58;16.60;40.10
678;DHT22;321;48.814;9.132;2023-04-06T14:36:25;16.20;37.50
678;DHT22;321;48.814;9.132;2023-04-06T14:38:53;15.80;38.80
678;DHT22;321;48.814;9.132;2023-04-06T14:41:21;15.70;39.80
678;DHT22;321;48.814;9.132;2023-04-06T14:43:47;15.40;39.70
678;DHT22;321;48.814;9.132;2023-04-06T14:46:13;15.60;40.00
678;DHT22;321;48.814;9.132;2023-04-06T14:48:39;15.50;40.30
678;DHT22;321;48.814;9.132;2023-04-06T14:51:05;15.40;39.20
678;DHT22;321;48.814;9.132;2023-04-06T14:53:31;15.40;39.50
678;DHT22;321;48.814;9.132;2023-04-06T14:55:57;15.10;39.40
678;DHT22;321;48.814;9.132;2023-04-06T14:58:23;15.10;42.80
678;DHT22;321;48.814;9.132;2023-04-06T15:00:55;15.20;40.90
678;DHT22;321;48.814;9.132;2023-04-06T15:03:21;15.10;39.80
678;DHT22;321;48.814;9.132;2023-04-06T15:05:47;15.20;41.00
678;DHT22;321;48.814;9.132;2023-04-06T15:08:13;15.10;40.40
678;DHT22;321;48.814;9.132;2023-04-06T15:10:40;15.20;40.90
678;DHT22;321;48.814;9.132;2023-04-06T15:13:05;15.70;40.10
678;DHT22;321;48.814;9.132;2023-04-06T15:15:31;15.10;39.10
678;DHT22;321;48.814;9.132;2023-04-06T15:17:57;14.90;39.80
678;DHT22;321;48.814;9.132;2023-04-06T15:20:22;15.00;40.30
678;DHT22;321;48.814;9.132;2023-04-06T15:22:48;14.90;39.20
678;DHT22;321;48.814;9.132;2023-04-06T15:25:13;14.60;39.60
678;DHT22;321;48.814;9.132;2023-04-06T15:27:39;14.50;39.60
678;DHT22;321;48.814;9.132;2023-04-06T15:30:05;14.10;40.10
678;DHT22;321;48.814;9.132;2023-04-06T15:32:30;14.30;40.50
678;DHT22;321;48.814;9.132;2023-04-06T15:34:57;14.40;41.30
678;DHT22;321;48.814;9.132;2023-04-06T15:37:23;14.70;41.10
678;DHT22;321;48.814;9.132;2023-04-06T15:39:49;14.50;40.40
678;DHT22;321;48.814;9.132;2023-04-06T15:42:15;14.70;41.10
678;DHT22;321;48.814;9.132;2023-04-06T15:44:41;14.50;40.30
678;DHT22;321;48.814;9.132;2023-04-06T15:47:07;14.30;41.20
678;DHT22;321;48.814;9.132;2023-04-06T15:49:32;14.60;41.40
678;DHT22;321;48.814;9.132;2023-04-06T15:51:59;14.80;42.40
678;DHT22;321;48.814;9.132;2023-04-06T15:54:24;15.00;42.90
678;DHT22;321;48.814;9.132;2023-04-06T15:56:50;15.10;43.70
678;DHT22;321;48.814;9.132;2023-04-06T15:59:15;15.10;44.30
678;DHT22;321;48.814;9.132;2023-04-06T16:01:41;15.10;44.00
678;DHT22;321;48.814;9.132;2023-04-06T16:04:07;15.20;45.50
678;DHT22;321;48.814;9.132;2023-04-06T16:06:34;15.10;47.00
678;DHT22;321;48.814;9.132;2023-04-06T16:08:59;15.20;44.60
678;DHT22;321;48.814;9.132;2023-04-06T16:11:26;15.20;44.50
678;DHT22;321;48.814;9.132;2023-04-06T16:13:51;15.10;47.00
678;DHT22;321;48.814;9.132;2023-04-06T16:16:17;15.00;45.00
678;DHT22;321;48.814;9.132;2023-04-06T16:18:43;15.00;45.30
678;DHT22;321;48.814;9.132;2023-04-06T16:21:14;14.90;46.10
678;DHT22;321;48.814;9.132;2023-04-06T16:23:40;14.90;46.00
678;DHT22;321;48.814;9.132;2023-04-06T16:26:16;14.80;45.50
678;DHT22;321;48.814;9.132;2023-04-06T16:28:46;14.70;45.50
678;DHT22;321;48.814;9.132;2023-04-06T16:31:22;14.60;46.70
678;DHT22;321;48.814;9.132;2023-04-06T16:33:49;14.60;46.50
678;DHT22;321;48.814;9.132;2023-04-06T16:36:21;14.40;47.30
678;DHT22;321;48.814;9.132;2023-04-06T16:38:47;14.40;47.60
678;DHT22;321;48.814;9.132;2023-04-06T16:41:12;14.30;49.80
678;DHT22;321;48.814;9.132;2023-04-06T16:43:39;14.20;48.20
678;DHT22;321;48.814;9.132;2023-04-06T16:46:05;14.20;48.80